createdAt,value
2019-04-07T00:00:59.883Z,0.47
2019-04-07T00:03:26.618Z,0.40
2019-04-07T00:05:53.696Z,0.40
2019-04-07T00:08:20.558Z,0.20
2019-04-07T00:10:47.183Z,0.30
2019-04-07T00:13:13.670Z,0.42
2019-04-07T00:15:40.095Z,0.20
2019-04-07T00:18:06.668Z,0.25
2019-04-07T00:20:33.224Z,0.30
2019-04-07T00:22:59.527Z,0.23
2019-04-07T00:25:25.968Z,0.40
2019-04-07T00:27:57.504Z,0.35
2019-04-07T00:30:23.803Z,0.30
2019-04-07T00:32:50.765Z,0.10
2019-04-07T00:35:26.786Z,0.20
2019-04-07T00:37:45.310Z,0.17
2019-04-07T00:40:12.049Z,0.20
2019-04-07T00:42:39.082Z,0.33
2019-04-07T00:45:06.125Z,0.20
2019-04-07T00:47:33.976Z,0.40
2019-04-07T00:50:00.848Z,0.30
2019-04-07T00:52:28.373Z,0.23
2019-04-07T00:54:55.560Z,0.50
2019-04-07T00:57:23.025Z,0.28
2019-04-07T00:59:49.324Z,0.30
2019-04-07T01:02:16.877Z,0.40
2019-04-07T01:04:43.898Z,0.30
2019-04-07T01:07:11.398Z,0.30
2019-04-07T01:09:38.055Z,0.20
2019-04-07T01:12:05.054Z,0.20
2019-04-07T01:14:31.538Z,0.30
2019-04-07T01:16:58.314Z,0.10
2019-04-07T01:19:25.278Z,0.35
2019-04-07T01:21:51.773Z,0.20
2019-04-07T01:24:18.682Z,0.40
2019-04-07T01:26:45.059Z,0.13
2019-04-07T01:29:11.565Z,0.10
2019-04-07T01:31:38.082Z,0.20
2019-04-07T01:34:04.430Z,0.10
2019-04-07T01:36:30.821Z,0.10
2019-04-07T01:38:57.547Z,0.20
2019-04-07T01:41:26.323Z,0.13
2019-04-07T01:44:06.686Z,0.20
2019-04-07T01:46:38.004Z,0.20
2019-04-07T01:49:11.016Z,0.15
2019-04-07T01:51:42.653Z,0.20
2019-04-07T01:54:10.859Z,0.10
2019-04-07T01:56:42.695Z,0.10
2019-04-07T01:59:12.076Z,0.20
2019-04-07T02:01:40.507Z,0.30
2019-04-07T02:04:09.340Z,0.10
2019-04-07T02:06:37.558Z,0.15
2019-04-07T02:09:11.074Z,0.30
2019-04-07T02:11:42.888Z,0.08
2019-04-07T02:14:13.849Z,0.10
2019-04-07T02:16:42.079Z,0.28
2019-04-07T02:19:28.237Z,0.17
2019-04-07T02:21:56.544Z,0.10
2019-04-07T02:24:43.845Z,0.10
2019-04-07T02:27:12.183Z,0.20
2019-04-07T02:29:40.416Z,0.10
2019-04-07T02:32:15.220Z,0.20
2019-04-07T02:34:59.256Z,0.10
2019-04-07T02:37:33.628Z,0.10
2019-04-07T02:40:04.994Z,0.20
2019-04-07T02:42:42.673Z,0.20
2019-04-07T02:45:30.318Z,0.20
2019-04-07T02:47:58.593Z,0.30
2019-04-07T02:50:40.070Z,0.70
2019-04-07T02:53:24.835Z,1.37
2019-04-07T02:56:10.094Z,1.27
2019-04-07T02:58:55.184Z,1.22
2019-04-07T03:01:39.030Z,1.02
2019-04-07T03:04:13.394Z,1.57
2019-04-07T03:06:53.064Z,1.12
2019-04-07T03:09:24.110Z,1.00
2019-04-07T03:11:52.504Z,1.27
2019-04-07T03:14:35.018Z,0.93
2019-04-07T03:17:11.789Z,1.22
2019-04-07T03:19:58.228Z,1.00
2019-04-07T03:22:32.497Z,1.40
2019-04-07T03:25:15.785Z,1.40
2019-04-07T03:27:44.488Z,1.27
2019-04-07T03:30:13.749Z,1.00
2019-04-07T03:32:51.011Z,1.25
2019-04-07T03:35:25.193Z,1.37
2019-04-07T03:37:54.777Z,0.80
2019-04-07T03:40:38.288Z,0.80
2019-04-07T03:43:18.276Z,0.70
2019-04-07T03:46:01.628Z,1.10
2019-04-07T03:48:30.489Z,1.50
2019-04-07T03:51:09.171Z,0.80
2019-04-07T03:53:41.042Z,1.05
2019-04-07T03:56:10.153Z,1.00
2019-04-07T03:58:55.799Z,0.90
2019-04-07T04:01:33.640Z,0.53
2019-04-07T04:04:17.651Z,0.53
2019-04-07T04:07:18.211Z,0.78
2019-04-07T04:09:38.187Z,0.62
2019-04-07T04:12:07.224Z,0.62
2019-04-07T04:14:41.629Z,0.45
2019-04-07T04:17:10.244Z,0.55
2019-04-07T04:19:36.640Z,0.50
2019-04-07T04:22:03.973Z,0.35
2019-04-07T04:24:30.905Z,0.40
2019-04-07T04:26:57.391Z,0.45
2019-04-07T04:29:24.805Z,0.80
2019-04-07T04:31:52.551Z,1.22
2019-04-07T04:34:19.316Z,0.95
2019-04-07T04:36:46.513Z,1.00
2019-04-07T04:39:17.244Z,0.80
2019-04-07T04:41:41.412Z,0.78
2019-04-07T04:44:08.681Z,0.75
2019-04-07T04:46:35.281Z,0.60
2019-04-07T04:49:02.448Z,0.85
2019-04-07T04:51:29.532Z,0.85
2019-04-07T04:53:56.397Z,0.60
2019-04-07T04:56:24.295Z,0.70
2019-04-07T04:58:50.880Z,0.72
2019-04-07T05:01:17.636Z,0.68
2019-04-07T05:03:44.429Z,0.37
2019-04-07T05:06:11.019Z,0.50
2019-04-07T05:08:39.111Z,0.50
2019-04-07T05:11:05.739Z,0.70
2019-04-07T05:13:32.078Z,0.50
2019-04-07T05:15:58.491Z,0.50
2019-04-07T05:18:24.783Z,0.50
2019-04-07T05:20:51.190Z,0.50
2019-04-07T05:23:18.124Z,0.70
2019-04-07T05:25:44.955Z,0.40
2019-04-07T05:28:11.387Z,0.60
2019-04-07T05:30:39.070Z,0.60
2019-04-07T05:33:05.839Z,0.70
2019-04-07T05:35:32.890Z,0.60
2019-04-07T05:38:03.483Z,0.40
2019-04-07T05:40:27.793Z,0.60
2019-04-07T05:42:54.456Z,0.60
2019-04-07T05:45:21.472Z,0.40
2019-04-07T05:47:50.305Z,0.50
2019-04-07T05:50:16.638Z,0.40
2019-04-07T05:52:44.460Z,0.45
2019-04-07T05:55:11.019Z,0.47
2019-04-07T05:57:37.790Z,0.50
2019-04-07T06:00:08.178Z,0.30
2019-04-07T06:02:35.257Z,0.50
2019-04-07T06:05:03.148Z,0.50
2019-04-07T06:07:31.527Z,0.45
2019-04-07T06:09:57.903Z,0.50
2019-04-07T06:12:24.226Z,0.40
2019-04-07T06:14:50.893Z,0.60
2019-04-07T06:17:17.579Z,0.42
2019-04-07T06:19:44.394Z,0.60
2019-04-07T06:22:11.134Z,0.37
2019-04-07T06:24:37.419Z,0.40
2019-04-07T06:27:04.392Z,0.50
2019-04-07T06:29:30.955Z,0.40
2019-04-07T06:31:57.833Z,0.50
2019-04-07T06:34:24.956Z,0.40
2019-04-07T06:36:54.901Z,0.42
2019-04-07T06:39:20.081Z,0.50
2019-04-07T06:41:46.630Z,0.60
2019-04-07T06:44:15.844Z,0.37
2019-04-07T06:46:43.454Z,0.45
2019-04-07T06:49:27.583Z,0.42
2019-04-07T06:52:12.260Z,0.50
2019-04-07T06:54:40.498Z,0.28
2019-04-07T06:57:12.243Z,0.40
2019-04-07T06:59:55.693Z,0.50
2019-04-07T07:02:40.714Z,0.30
2019-04-07T07:05:13.696Z,0.33
2019-04-07T07:07:58.706Z,0.30
2019-04-07T07:10:40.953Z,0.40
2019-04-07T07:13:29.255Z,0.50
2019-04-07T07:15:54.134Z,0.57
2019-04-07T07:18:23.713Z,0.50
2019-04-07T07:21:11.091Z,0.30
2019-04-07T07:23:47.093Z,0.30
2019-04-07T07:26:11.538Z,0.35
2019-04-07T07:28:38.099Z,0.37
2019-04-07T07:31:05.312Z,0.40
2019-04-07T07:33:32.003Z,0.40
2019-04-07T07:35:59.220Z,0.45
2019-04-07T07:38:29.755Z,0.50
2019-04-07T07:40:54.003Z,0.40
2019-04-07T07:43:20.998Z,0.30
2019-04-07T07:45:48.616Z,0.40
2019-04-07T07:48:16.300Z,0.47
2019-04-07T07:50:43.635Z,0.40
2019-04-07T07:53:10.535Z,0.60
2019-04-07T07:55:38.648Z,0.50
2019-04-07T07:58:05.035Z,0.42
2019-04-07T08:00:32.009Z,0.20
2019-04-07T08:02:59.187Z,0.35
2019-04-07T08:05:29.908Z,0.65
2019-04-07T08:07:55.127Z,0.50
2019-04-07T08:10:25.038Z,0.60
2019-04-07T08:12:50.824Z,0.50
2019-04-07T08:15:18.138Z,0.53
2019-04-07T08:17:45.264Z,0.50
2019-04-07T08:20:13.031Z,0.50
2019-04-07T08:22:43.182Z,0.37
2019-04-07T08:25:07.836Z,0.50
2019-04-07T08:27:34.400Z,0.40
2019-04-07T08:30:01.631Z,0.40
2019-04-07T08:32:31.246Z,0.47
2019-04-07T08:34:56.978Z,0.50
2019-04-07T08:37:23.697Z,0.50
2019-04-07T08:39:50.793Z,0.50
2019-04-07T08:42:18.970Z,0.50
2019-04-07T08:44:46.234Z,0.40
2019-04-07T08:47:18.837Z,0.42
2019-04-07T08:49:41.579Z,0.50
2019-04-07T08:52:10.217Z,0.28
2019-04-07T08:54:36.869Z,0.47
2019-04-07T08:57:03.442Z,0.47
2019-04-07T08:59:30.291Z,0.28
2019-04-07T09:01:56.978Z,0.47
2019-04-07T09:04:24.171Z,0.40
2019-04-07T09:06:51.106Z,0.40
2019-04-07T09:09:17.772Z,0.45
2019-04-07T09:11:44.265Z,0.40
2019-04-07T09:14:10.912Z,0.40
2019-04-07T09:16:42.360Z,0.30
2019-04-07T09:19:26.446Z,0.40
2019-04-07T09:22:11.872Z,0.20
2019-04-07T09:24:57.842Z,0.20
2019-04-07T09:27:38.539Z,0.35
2019-04-07T09:30:09.958Z,0.40
2019-04-07T09:32:38.307Z,0.20
2019-04-07T09:35:22.756Z,0.20
2019-04-07T09:38:05.049Z,0.30
2019-04-07T09:40:33.980Z,0.30
2019-04-07T09:43:11.182Z,0.40
2019-04-07T09:45:45.882Z,0.30
2019-04-07T09:48:22.848Z,0.30
2019-04-07T09:51:02.555Z,0.33
2019-04-07T09:53:27.371Z,0.40
2019-04-07T09:55:59.215Z,0.30
2019-04-07T09:58:37.290Z,0.40
2019-04-07T10:01:19.697Z,0.47
2019-04-07T10:03:51.748Z,0.25
2019-04-07T10:06:39.068Z,0.35
2019-04-07T10:09:11.314Z,0.47
2019-04-07T10:11:39.884Z,0.37
2019-04-07T10:14:25.781Z,0.23
2019-04-07T10:16:57.383Z,0.25
2019-04-07T10:19:25.926Z,0.40
2019-04-07T10:22:09.548Z,0.20
2019-04-07T10:24:54.816Z,0.20
2019-04-07T10:27:29.665Z,0.30
2019-04-07T10:30:14.703Z,0.40
2019-04-07T10:32:46.335Z,0.28
2019-04-07T10:35:40.923Z,0.53
2019-04-07T10:38:25.931Z,0.80
2019-04-07T10:41:10.759Z,0.82
2019-04-07T10:43:48.108Z,0.68
2019-04-07T10:46:25.961Z,0.80
2019-04-07T10:49:11.361Z,0.50
2019-04-07T10:51:46.017Z,0.70
2019-04-07T10:54:31.414Z,0.75
2019-04-07T10:57:05.338Z,0.80
2019-04-07T10:59:53.259Z,0.88
2019-04-07T11:02:21.512Z,0.80
2019-04-07T11:04:52.806Z,0.90
2019-04-07T11:07:21.634Z,0.88
2019-04-07T11:09:55.936Z,0.80
2019-04-07T11:12:30.438Z,0.60
2019-04-07T11:15:15.800Z,1.07
2019-04-07T11:17:50.306Z,0.90
2019-04-07T11:20:19.243Z,0.60
2019-04-07T11:22:54.194Z,0.70
2019-04-07T11:25:29.453Z,0.40
2019-04-07T11:28:01.444Z,0.53
2019-04-07T11:30:29.688Z,0.47
2019-04-07T11:33:01.629Z,0.55
2019-04-07T11:35:33.022Z,0.60
2019-04-07T11:38:10.417Z,0.37
2019-04-07T11:40:47.454Z,0.40
2019-04-07T11:43:18.105Z,1.70
2019-04-07T11:45:56.170Z,1.05
2019-04-07T11:48:25.844Z,1.40
2019-04-07T11:51:06.335Z,1.27
2019-04-07T11:53:51.282Z,1.25
2019-04-07T11:56:22.855Z,1.02
2019-04-07T11:58:54.130Z,0.98
2019-04-07T12:01:29.193Z,1.10
2019-04-07T12:04:01.208Z,1.10
2019-04-07T12:06:48.821Z,0.80
2019-04-07T12:09:14.788Z,0.90
2019-04-07T12:11:59.788Z,0.80
2019-04-07T12:14:33.985Z,0.60
2019-04-07T12:17:19.864Z,0.93
2019-04-07T12:20:04.168Z,0.70
2019-04-07T12:22:35.025Z,0.68
2019-04-07T12:25:06.780Z,0.65
2019-04-07T12:27:51.807Z,0.80
2019-04-07T12:30:35.802Z,0.62
2019-04-07T12:33:07.227Z,0.45
2019-04-07T12:35:43.568Z,0.40
2019-04-07T12:38:17.699Z,0.60
2019-04-07T12:41:12.480Z,0.20
2019-04-07T12:43:33.990Z,0.30
2019-04-07T12:46:05.587Z,0.30
2019-04-07T12:48:43.555Z,0.50
2019-04-07T12:51:27.593Z,0.50
2019-04-07T12:53:56.401Z,0.40
2019-04-07T12:56:41.327Z,0.30
2019-04-07T12:59:28.217Z,0.20
2019-04-07T13:02:05.549Z,0.40
2019-04-07T13:04:46.718Z,0.30
2019-04-07T13:07:24.177Z,0.30
2019-04-07T13:09:55.542Z,0.50
2019-04-07T13:12:25.039Z,0.57
2019-04-07T13:15:12.663Z,0.30
2019-04-07T13:17:56.281Z,0.37
2019-04-07T13:20:27.676Z,0.40
2019-04-07T13:23:07.964Z,0.40
2019-04-07T13:25:39.743Z,0.17
2019-04-07T13:28:08.276Z,0.20
2019-04-07T13:30:37.404Z,0.28
2019-04-07T13:33:15.041Z,0.30
2019-04-07T13:35:56.302Z,0.20
2019-04-07T13:38:25.098Z,0.13
2019-04-07T13:41:03.005Z,0.15
2019-04-07T13:43:33.193Z,0.30
2019-04-07T13:46:04.389Z,0.20
2019-04-07T13:48:33.345Z,0.30
2019-04-07T13:51:02.107Z,0.30
2019-04-07T13:53:31.571Z,0.20
2019-04-07T13:56:18.676Z,0.15
2019-04-07T13:58:54.306Z,0.10
2019-04-07T14:01:35.736Z,0.42
2019-04-07T14:04:13.223Z,0.20
2019-04-07T14:06:58.831Z,0.30
2019-04-07T14:09:32.113Z,0.20
2019-04-07T14:12:15.466Z,0.40
2019-04-07T14:14:47.213Z,0.13
2019-04-07T14:17:16.455Z,0.30
2019-04-07T14:20:00.487Z,0.30
2019-04-07T14:22:45.503Z,0.30
2019-04-07T14:25:30.961Z,0.13
2019-04-07T14:28:12.874Z,0.28
2019-04-07T14:30:41.487Z,0.20
2019-04-07T14:33:15.459Z,0.20
2019-04-07T14:35:44.223Z,0.25
2019-04-07T14:38:21.350Z,0.20
2019-04-07T14:40:56.372Z,0.10
2019-04-07T14:43:31.035Z,0.20
2019-04-07T14:46:12.060Z,0.20
2019-04-07T14:48:58.897Z,0.50
2019-04-07T14:51:42.711Z,0.50
2019-04-07T14:54:18.511Z,0.40
2019-04-07T14:56:58.564Z,0.40
2019-04-07T14:59:29.664Z,0.35
2019-04-07T15:02:00.313Z,0.40
2019-04-07T15:04:30.212Z,0.40
2019-04-07T15:07:04.408Z,0.40
2019-04-07T15:09:31.664Z,0.30
2019-04-07T15:12:01.602Z,0.30
2019-04-07T15:14:31.452Z,0.30
2019-04-07T15:16:56.332Z,0.30
2019-04-07T15:19:23.424Z,0.23
2019-04-07T15:21:53.125Z,0.28
2019-04-07T15:24:18.702Z,0.15
2019-04-07T15:26:49.491Z,0.30
2019-04-07T15:29:13.380Z,0.30
2019-04-07T15:31:40.619Z,0.30
2019-04-07T15:34:10.075Z,0.60
2019-04-07T15:36:35.365Z,0.60
2019-04-07T15:39:01.762Z,0.53
2019-04-07T15:41:28.075Z,0.30
2019-04-07T15:43:55.166Z,0.45
2019-04-07T15:46:22.496Z,0.60
2019-04-07T15:48:49.736Z,0.45
2019-04-07T15:51:16.468Z,0.42
2019-04-07T15:53:48.440Z,0.50
2019-04-07T15:56:15.051Z,0.50
2019-04-07T15:58:40.851Z,0.35
2019-04-07T16:01:09.364Z,0.40
2019-04-07T16:03:35.635Z,0.47
2019-04-07T16:06:04.620Z,0.78
2019-04-07T16:08:31.967Z,0.30
2019-04-07T16:10:59.455Z,0.40
2019-04-07T16:13:26.719Z,0.50
2019-04-07T16:15:55.201Z,0.62
2019-04-07T16:18:22.085Z,0.68
2019-04-07T16:20:48.514Z,0.30
2019-04-07T16:23:17.441Z,0.40
2019-04-07T16:25:42.972Z,0.40
2019-04-07T16:28:12.848Z,0.30
2019-04-07T16:30:38.222Z,0.33
2019-04-07T16:33:05.615Z,0.28
2019-04-07T16:35:32.404Z,0.40
2019-04-07T16:38:00.434Z,0.40
2019-04-07T16:40:27.006Z,0.20
2019-04-07T16:43:04.632Z,0.20
2019-04-07T16:45:22.369Z,0.30
2019-04-07T16:47:48.835Z,0.33
2019-04-07T16:50:18.169Z,0.20
2019-04-07T16:52:44.252Z,0.25
2019-04-07T16:55:35.080Z,0.30
2019-04-07T16:58:02.914Z,0.20
2019-04-07T17:00:29.616Z,0.10
2019-04-07T17:02:56.852Z,0.20
2019-04-07T17:05:30.666Z,0.30
2019-04-07T17:07:58.026Z,0.23
2019-04-07T17:10:28.862Z,0.20
2019-04-07T17:12:52.930Z,0.50
2019-04-07T17:15:19.429Z,0.13
2019-04-07T17:17:46.544Z,0.20
2019-04-07T17:20:14.603Z,0.10
2019-04-07T17:22:43.467Z,0.30
2019-04-07T17:25:10.005Z,0.13
2019-04-07T17:27:40.923Z,0.13
2019-04-07T17:30:17.258Z,0.20
2019-04-07T17:32:46.890Z,0.20
2019-04-07T17:35:15.241Z,0.30
2019-04-07T17:37:42.635Z,0.17
2019-04-07T17:40:14.757Z,0.10
2019-04-07T17:42:42.052Z,0.20
2019-04-07T17:45:13.182Z,0.25
2019-04-07T17:48:00.496Z,0.13
2019-04-07T17:50:31.672Z,0.17
2019-04-07T17:53:03.129Z,0.20
2019-04-07T17:55:48.019Z,0.13
2019-04-07T17:58:26.278Z,0.20
2019-04-07T18:00:57.495Z,0.20
2019-04-07T18:03:38.858Z,0.10
2019-04-07T18:06:21.548Z,0.30
2019-04-07T18:09:07.937Z,0.10
2019-04-07T18:11:35.195Z,0.20
2019-04-07T18:14:12.621Z,0.20
2019-04-07T18:16:44.743Z,0.20
2019-04-07T18:19:22.180Z,0.30
2019-04-07T18:21:53.876Z,0.30
2019-04-07T18:24:22.738Z,0.40
2019-04-07T18:26:56.983Z,0.30
2019-04-07T18:29:41.711Z,0.60
2019-04-07T18:32:26.453Z,0.30
2019-04-07T18:34:57.059Z,0.30
2019-04-07T18:37:26.070Z,0.68
2019-04-07T18:39:59.511Z,0.33
2019-04-07T18:42:29.382Z,0.40
2019-04-07T18:45:13.730Z,0.70
2019-04-07T18:47:48.254Z,0.75
2019-04-07T18:50:36.988Z,0.45
2019-04-07T18:53:03.693Z,0.40
2019-04-07T18:55:38.196Z,0.30
2019-04-07T18:58:07.454Z,0.40
2019-04-07T19:00:45.494Z,0.30
2019-04-07T19:03:26.441Z,0.30
2019-04-07T19:06:07.451Z,0.40
2019-04-07T19:08:37.376Z,0.17
2019-04-07T19:11:12.321Z,0.40
2019-04-07T19:13:59.417Z,0.30
2019-04-07T19:16:34.856Z,0.40
2019-04-07T19:19:03.106Z,0.42
2019-04-07T19:21:37.220Z,0.42
2019-04-07T19:24:04.501Z,0.33
2019-04-07T19:26:42.180Z,0.47
2019-04-07T19:29:10.482Z,0.40
2019-04-07T19:31:55.499Z,0.40
2019-04-07T19:34:34.409Z,0.50
2019-04-07T19:37:22.430Z,0.37
2019-04-07T19:40:06.042Z,0.40
2019-04-07T19:42:39.954Z,0.55
2019-04-07T19:45:22.197Z,0.37
2019-04-07T19:47:59.315Z,0.42
2019-04-07T19:50:28.566Z,0.40
2019-04-07T19:53:04.967Z,0.53
2019-04-07T19:55:35.210Z,0.60
2019-04-07T19:58:19.884Z,0.55
2019-04-07T20:01:04.691Z,0.72
2019-04-07T20:03:37.787Z,0.72
2019-04-07T20:06:03.079Z,0.70
2019-04-07T20:08:46.305Z,0.50
2019-04-07T20:11:29.603Z,0.47
2019-04-07T20:14:14.455Z,0.78
2019-04-07T20:16:46.138Z,0.50
2019-04-07T20:19:13.686Z,0.30
2019-04-07T20:21:42.773Z,0.60
2019-04-07T20:24:15.241Z,0.60
2019-04-07T20:27:01.023Z,0.50
2019-04-07T20:29:46.205Z,0.85
2019-04-07T20:32:14.516Z,0.78
2019-04-07T20:34:57.737Z,0.55
2019-04-07T20:37:42.655Z,0.85
2019-04-07T20:40:11.020Z,0.93
2019-04-07T20:42:46.266Z,0.78
2019-04-07T20:45:31.070Z,0.42
2019-04-07T20:48:03.020Z,0.78
2019-04-07T20:50:49.594Z,0.50
2019-04-07T20:53:26.381Z,0.70
2019-04-07T20:56:00.183Z,0.50
2019-04-07T20:58:46.458Z,0.50
2019-04-07T21:01:18.784Z,0.57
2019-04-07T21:03:49.336Z,0.55
2019-04-07T21:06:19.522Z,0.35
2019-04-07T21:08:54.004Z,0.75
2019-04-07T21:11:42.837Z,0.60
2019-04-07T21:14:15.520Z,0.70
2019-04-07T21:17:02.778Z,0.62
2019-04-07T21:19:41.139Z,0.40
2019-04-07T21:22:15.913Z,0.60
2019-04-07T21:25:00.643Z,0.60
2019-04-07T21:27:41.351Z,0.40
2019-04-07T21:30:09.499Z,0.55
2019-04-07T21:32:37.739Z,0.50
2019-04-07T21:35:06.549Z,0.53
2019-04-07T21:37:51.914Z,0.30
2019-04-07T21:40:20.982Z,0.40
2019-04-07T21:42:54.488Z,0.50
2019-04-07T21:45:37.065Z,0.50
2019-04-07T21:48:13.738Z,0.25
2019-04-07T21:50:51.674Z,0.30
2019-04-07T21:53:30.610Z,0.30
2019-04-07T21:56:08.108Z,0.40
2019-04-07T21:58:54.938Z,0.50
2019-04-07T22:01:33.256Z,0.47
2019-04-07T22:04:02.924Z,0.35
2019-04-07T22:06:32.122Z,0.57
2019-04-07T22:09:17.094Z,0.60
2019-04-07T22:11:45.840Z,0.42
2019-04-07T22:14:12.557Z,0.30
2019-04-07T22:16:39.577Z,0.35
2019-04-07T22:19:10.237Z,0.30
2019-04-07T22:21:34.434Z,0.35
2019-04-07T22:24:01.929Z,0.50
2019-04-07T22:26:28.483Z,0.55
2019-04-07T22:28:56.908Z,0.23
2019-04-07T22:31:25.045Z,0.35
2019-04-07T22:33:53.523Z,0.28
2019-04-07T22:36:19.668Z,0.70
2019-04-07T22:38:46.093Z,0.40
2019-04-07T22:41:12.507Z,0.30
2019-04-07T22:43:39.242Z,0.28
2019-04-07T22:46:16.542Z,0.37
2019-04-07T22:48:34.425Z,0.40
2019-04-07T22:51:02.887Z,0.40
2019-04-07T22:53:31.357Z,0.33
2019-04-07T22:55:57.540Z,0.30
2019-04-07T22:58:24.283Z,0.40
2019-04-07T23:00:50.751Z,0.37
2019-04-07T23:03:17.600Z,0.30
2019-04-07T23:05:44.378Z,0.45
2019-04-07T23:08:11.032Z,0.40
2019-04-07T23:10:37.896Z,0.33
2019-04-07T23:13:05.729Z,0.42
2019-04-07T23:15:40.114Z,0.40
2019-04-07T23:18:00.525Z,0.33
2019-04-07T23:20:26.928Z,0.30
2019-04-07T23:22:54.216Z,0.45
2019-04-07T23:25:22.696Z,0.30
2019-04-07T23:27:48.826Z,0.35
2019-04-07T23:30:15.228Z,0.30
2019-04-07T23:32:41.709Z,0.40
2019-04-07T23:35:08.319Z,0.35
2019-04-07T23:37:35.013Z,0.47
2019-04-07T23:40:03.251Z,0.30
2019-04-07T23:42:30.355Z,0.37
2019-04-07T23:44:57.095Z,0.40
2019-04-07T23:47:23.653Z,0.25
2019-04-07T23:49:50.415Z,0.47
2019-04-07T23:52:16.871Z,0.40
2019-04-07T23:54:43.501Z,0.30
2019-04-07T23:57:09.963Z,0.50
2019-04-07T23:59:36.467Z,0.42
